Time;durP1;ratioP1;P1;durP2;ratioP2;P2;SDS_P1;SDS_P2;PMS_P1;PMS_P2;Temp;Humidity;BMP_temperature;BMP_pressure;BME280_temperature;BME280_humidity;BME280_pressure;Samples;Min_cycle;Max_cycle;Signal;HPM_P1;HPM_P2
2021/03/19 00:00:15;;;;;;;4.38;2.10;;;8.40;99.90;;;;;;4941464;29;20020;-92
2021/03/19 00:02:42;;;;;;;4.55;1.67;;;8.40;99.90;;;;;;4940559;29;20027;-91
2021/03/19 00:05:13;;;;;;;1.50;1.40;;;8.40;99.90;;;;;;4941273;29;20031;-92
2021/03/19 00:07:44;;;;;;;4.13;1.58;;;8.30;99.90;;;;;;4941090;29;20047;-92
2021/03/19 00:10:12;;;;;;;2.58;1.95;;;8.30;99.90;;;;;;4925878;29;20024;-93
2021/03/19 00:12:37;;;;;;;2.72;1.48;;;8.20;99.90;;;;;;4925363;29;20020;-91
2021/03/19 00:15:06;;;;;;;5.43;1.77;;;8.30;99.90;;;;;;4924929;29;20024;-92
2021/03/19 00:17:44;;;;;;;6.30;2.13;;;8.20;99.90;;;;;;4941384;29;20020;-93
2021/03/19 00:20:12;;;;;;;2.67;2.03;;;8.20;99.90;;;;;;4941323;29;20016;-91
2021/03/19 00:22:58;;;;;;;2.67;1.63;;;8.10;99.90;;;;;;4941720;29;20035;-91
2021/03/19 00:25:31;;;;;;;3.95;1.75;;;8.10;99.90;;;;;;4941738;29;20048;-91
2021/03/19 00:27:59;;;;;;;4.38;2.33;;;8.00;99.90;;;;;;4941111;29;20045;-90
2021/03/19 00:30:25;;;;;;;4.63;1.75;;;8.10;99.90;;;;;;4941748;29;20036;-91
2021/03/19 00:32:52;;;;;;;4.78;1.95;;;8.00;99.90;;;;;;4925305;29;20020;-89
2021/03/19 00:35:18;;;;;;;7.57;2.05;;;8.00;99.90;;;;;;4940847;29;20063;-91
2021/03/19 00:37:47;;;;;;;3.97;1.73;;;7.90;99.90;;;;;;4940761;29;20028;-91
2021/03/19 00:40:15;;;;;;;3.65;1.98;;;7.90;99.90;;;;;;4941062;29;20031;-91
2021/03/19 00:42:42;;;;;;;6.43;1.98;;;7.90;99.90;;;;;;4940627;29;20044;-91
2021/03/19 00:45:10;;;;;;;2.65;1.75;;;7.90;99.90;;;;;;4925200;29;20020;-91
2021/03/19 00:47:35;;;;;;;6.35;2.15;;;7.90;99.90;;;;;;4939870;29;20048;-90
2021/03/19 00:50:01;;;;;;;5.95;1.60;;;7.90;99.90;;;;;;4925375;29;20028;-91
2021/03/19 00:52:27;;;;;;;3.28;1.45;;;7.90;99.90;;;;;;4941351;29;20024;-92
2021/03/19 00:54:53;;;;;;;2.58;1.90;;;7.90;99.90;;;;;;4925543;29;20462;-92
2021/03/19 00:57:18;;;;;;;5.10;1.70;;;7.80;99.90;;;;;;4941133;29;20067;-91
2021/03/19 00:59:47;;;;;;;3.92;1.92;;;7.90;99.90;;;;;;4925609;29;20032;-92
2021/03/19 01:02:12;;;;;;;3.65;1.80;;;7.90;99.90;;;;;;4941787;29;20032;-91
2021/03/19 01:04:38;;;;;;;1.90;1.73;;;7.80;99.90;;;;;;4940784;29;20035;-92
2021/03/19 01:07:05;;;;;;;4.03;1.98;;;7.80;99.90;;;;;;4941188;29;20028;-92
2021/03/19 01:09:30;;;;;;;4.30;2.88;;;7.80;99.90;;;;;;4925334;29;20027;-91
2021/03/19 01:11:56;;;;;;;2.95;1.70;;;7.70;99.90;;;;;;4939497;29;20036;-91
2021/03/19 01:14:22;;;;;;;3.25;1.95;;;7.70;99.90;;;;;;4940389;29;20036;-94
2021/03/19 01:16:49;;;;;;;3.47;1.83;;;7.70;99.90;;;;;;4940212;29;20042;-90
2021/03/19 01:19:15;;;;;;;3.25;1.67;;;7.70;99.90;;;;;;4941580;29;20071;-91
2021/03/19 01:21:42;;;;;;;6.68;1.75;;;7.70;99.90;;;;;;4925627;29;20092;-91
2021/03/19 01:24:08;;;;;;;4.25;2.05;;;7.70;99.90;;;;;;4925055;29;20111;-91
2021/03/19 01:26:34;;;;;;;5.13;1.92;;;7.60;99.90;;;;;;4924255;29;20032;-92
2021/03/19 01:29:00;;;;;;;5.45;2.15;;;7.60;99.90;;;;;;4924436;29;20054;-92
2021/03/19 01:31:25;;;;;;;5.32;2.53;;;7.60;99.90;;;;;;4924288;29;20024;-92
2021/03/19 01:33:51;;;;;;;4.72;2.28;;;7.60;99.90;;;;;;4924551;29;20048;-93
2021/03/19 01:36:17;;;;;;;5.32;2.28;;;7.50;99.90;;;;;;4924489;29;20084;-94
2021/03/19 01:38:43;;;;;;;3.83;2.42;;;7.50;99.90;;;;;;4940228;29;20012;-94
2021/03/19 01:41:10;;;;;;;5.00;2.40;;;7.40;99.90;;;;;;4940075;29;20052;-95
2021/03/19 01:43:43;;;;;;;4.95;2.33;;;7.40;99.90;;;;;;4939927;29;20024;-95
2021/03/19 01:46:46;;;;;;;4.65;2.63;;;7.40;99.90;;;;;;4939965;29;20031;-93
2021/03/19 01:49:50;;;;;;;6.45;2.75;;;7.40;99.90;;;;;;4923548;29;20080;-94
2021/03/19 01:52:54;;;;;;;7.10;2.13;;;7.40;99.90;;;;;;4924070;29;20048;-94
2021/03/19 01:55:58;;;;;;;5.25;2.47;;;7.40;99.90;;;;;;4924042;29;20025;-94
2021/03/19 01:59:01;;;;;;;3.00;2.20;;;7.40;99.90;;;;;;4924252;29;20025;-91
2021/03/19 02:02:04;;;;;;;3.92;2.35;;;7.40;99.90;;;;;;4924707;29;20088;-92
2021/03/19 02:05:08;;;;;;;4.32;2.28;;;7.40;99.90;;;;;;4924363;29;20096;-93
2021/03/19 02:08:12;;;;;;;5.30;2.40;;;7.40;99.90;;;;;;4922855;29;20013;-91
2021/03/19 02:11:15;;;;;;;5.22;2.55;;;7.30;99.90;;;;;;4923810;29;20032;-95
2021/03/19 02:14:18;;;;;;;4.47;2.40;;;7.30;99.90;;;;;;4923448;29;20048;-96
2021/03/19 02:17:22;;;;;;;7.03;3.10;;;7.30;99.90;;;;;;4923462;29;20052;-92
2021/03/19 02:20:25;;;;;;;5.97;2.80;;;7.30;99.90;;;;;;4923564;29;20031;-92
2021/03/19 02:23:29;;;;;;;8.85;2.75;;;7.30;99.90;;;;;;4923244;29;20029;-94
2021/03/19 02:26:32;;;;;;;3.45;2.42;;;7.20;99.90;;;;;;4923445;29;20051;-93
2021/03/19 02:29:36;;;;;;;7.53;3.05;;;7.20;99.90;;;;;;4921696;29;20088;-91
2021/03/19 02:32:17;;;;;;;3.83;2.50;;;7.20;99.90;;;;;;4910340;29;20040;-94
2021/03/19 02:34:57;;;;;;;3.10;2.28;;;7.20;99.90;;;;;;4941480;29;20012;-90
2021/03/19 02:37:26;;;;;;;2.65;2.08;;;7.20;99.90;;;;;;4942332;29;20028;-92
2021/03/19 02:39:54;;;;;;;4.95;2.28;;;7.20;99.90;;;;;;4943219;29;20039;-91
2021/03/19 02:42:23;;;;;;;6.70;2.78;;;7.20;99.90;;;;;;4943018;29;20056;-91
2021/03/19 02:44:49;;;;;;;4.50;2.15;;;7.10;99.90;;;;;;4934535;29;20117;-94
2021/03/19 02:47:15;;;;;;;6.38;3.10;;;7.10;99.90;;;;;;4923131;29;20487;-92
2021/03/19 02:49:41;;;;;;;6.50;2.70;;;7.10;99.90;;;;;;4923471;29;20058;-92
2021/03/19 02:52:07;;;;;;;6.63;3.30;;;7.10;99.90;;;;;;4926209;29;20012;-90
2021/03/19 02:54:33;;;;;;;6.40;2.58;;;7.10;99.90;;;;;;4926537;29;20048;-92
2021/03/19 02:56:58;;;;;;;5.30;2.67;;;7.10;99.90;;;;;;4941188;29;20124;-91
2021/03/19 02:59:24;;;;;;;6.68;2.97;;;7.10;99.90;;;;;;4925497;29;20027;-91
2021/03/19 03:01:50;;;;;;;6.35;2.92;;;7.10;99.90;;;;;;4925595;29;20040;-90
2021/03/19 03:04:17;;;;;;;4.28;2.38;;;7.10;99.90;;;;;;4924980;29;20107;-90
2021/03/19 03:06:46;;;;;;;4.80;2.88;;;7.10;99.90;;;;;;4941785;29;20088;-90
2021/03/19 03:09:15;;;;;;;5.07;2.50;;;7.10;99.90;;;;;;4924048;29;20080;-90
2021/03/19 03:11:42;;;;;;;5.70;2.70;;;7.10;99.90;;;;;;4941340;29;20044;-89
2021/03/19 03:14:12;;;;;;;5.85;2.33;;;7.00;99.90;;;;;;4941326;29;20016;-91
2021/03/19 03:16:40;;;;;;;5.07;2.42;;;7.00;99.90;;;;;;4941124;29;20028;-89
2021/03/19 03:19:08;;;;;;;3.60;2.40;;;7.00;99.90;;;;;;4941237;29;20032;-90
2021/03/19 03:21:34;;;;;;;6.97;4.43;;;7.00;99.90;;;;;;4941607;29;20040;-88
2021/03/19 03:24:04;;;;;;;4.18;2.28;;;7.00;99.90;;;;;;4941297;29;20016;-88
2021/03/19 03:26:42;;;;;;;4.70;2.25;;;7.00;99.90;;;;;;4942074;29;20024;-89
2021/03/19 03:29:09;;;;;;;3.20;1.90;;;7.00;99.90;;;;;;4926064;29;20056;-88
2021/03/19 03:31:37;;;;;;;3.33;2.08;;;7.00;99.90;;;;;;4940482;29;20100;-90
2021/03/19 03:34:04;;;;;;;5.35;2.13;;;7.00;99.90;;;;;;4925099;29;20021;-89
2021/03/19 03:36:30;;;;;;;4.47;2.08;;;7.00;99.90;;;;;;4941437;29;20039;-88
2021/03/19 03:38:57;;;;;;;3.75;2.08;;;7.00;99.90;;;;;;4941106;29;20036;-90
2021/03/19 03:41:26;;;;;;;4.75;2.15;;;6.90;99.90;;;;;;4926074;29;20019;-90
2021/03/19 03:43:52;;;;;;;3.03;2.08;;;6.90;99.90;;;;;;4941464;29;20028;-90
2021/03/19 03:46:24;;;;;;;4.40;2.38;;;6.90;99.90;;;;;;4939668;29;20044;-94
2021/03/19 03:48:50;;;;;;;3.35;2.03;;;6.90;99.90;;;;;;4940108;29;20012;-94
2021/03/19 03:51:17;;;;;;;3.13;1.85;;;6.90;99.90;;;;;;4938256;29;20032;-94
2021/03/19 03:53:43;;;;;;;3.60;1.83;;;6.90;99.90;;;;;;4941023;29;20015;-89
2021/03/19 03:56:12;;;;;;;5.63;2.00;;;6.90;99.90;;;;;;4574577;29;10732306;-95
2021/03/19 03:58:41;;;;;;;2.63;1.73;;;6.90;99.90;;;;;;4921824;29;20043;-94
2021/03/19 04:01:14;;;;;;;3.85;2.05;;;6.90;99.90;;;;;;4907258;29;20025;-89
2021/03/19 04:03:39;;;;;;;4.03;1.30;;;6.90;99.90;;;;;;4922601;29;20072;-89
2021/03/19 04:06:12;;;;;;;2.45;1.55;;;6.90;99.90;;;;;;4923491;29;20020;-91
2021/03/19 04:08:38;;;;;;;2.25;1.48;;;6.90;99.90;;;;;;4936973;29;20044;-92
2021/03/19 04:11:09;;;;;;;3.33;1.50;;;6.90;99.90;;;;;;4921666;29;20045;-90
2021/03/19 04:13:52;;;;;;;1.80;1.30;;;6.90;99.90;;;;;;4938257;29;20033;-90
2021/03/19 04:16:19;;;;;;;1.42;1.17;;;6.90;99.90;;;;;;4922921;29;20064;-89
2021/03/19 04:18:50;;;;;;;1.40;1.27;;;6.90;99.90;;;;;;4907524;29;20020;-91
2021/03/19 04:21:39;;;;;;;3.15;1.30;;;6.90;99.90;;;;;;4923322;29;20050;-90
2021/03/19 04:24:05;;;;;;;1.45;1.00;;;6.90;99.90;;;;;;4938733;29;20016;-90
2021/03/19 04:26:38;;;;;;;1.63;1.33;;;6.90;99.90;;;;;;4923060;29;20051;-89
2021/03/19 04:29:06;;;;;;;2.70;1.38;;;6.80;99.90;;;;;;4923794;29;20017;-89
2021/03/19 04:31:31;;;;;;;2.42;1.42;;;6.90;99.90;;;;;;4922724;29;20032;-89
2021/03/19 04:33:57;;;;;;;2.42;1.55;;;6.80;99.90;;;;;;4938599;29;20040;-89
2021/03/19 04:36:48;;;;;;;2.63;1.50;;;6.80;99.90;;;;;;4938790;29;20032;-90
2021/03/19 04:39:22;;;;;;;1.92;1.35;;;6.80;99.90;;;;;;4938678;29;20017;-87
2021/03/19 04:41:52;;;;;;;3.55;1.98;;;6.80;99.90;;;;;;4938626;29;20051;-88
2021/03/19 04:44:29;;;;;;;3.33;1.90;;;6.80;99.90;;;;;;4923192;29;20041;-90
2021/03/19 04:47:05;;;;;;;3.05;1.85;;;6.70;99.90;;;;;;4923298;29;20076;-88
2021/03/19 04:49:34;;;;;;;3.70;2.03;;;6.70;99.90;;;;;;4922052;29;20061;-90
2021/03/19 04:52:03;;;;;;;4.43;2.20;;;6.70;99.90;;;;;;4922186;29;20034;-91
2021/03/19 04:54:33;;;;;;;4.35;2.25;;;6.70;99.90;;;;;;4922141;29;20013;-90
2021/03/19 04:57:04;;;;;;;6.15;2.47;;;6.70;99.90;;;;;;4935288;29;20028;-90
2021/03/19 04:59:31;;;;;;;5.18;3.10;;;6.70;99.90;;;;;;4941479;29;20023;-89
2021/03/19 05:02:01;;;;;;;4.93;2.70;;;6.70;99.90;;;;;;4925509;29;20031;-89
2021/03/19 05:04:28;;;;;;;4.95;2.58;;;6.60;99.90;;;;;;4940383;29;20063;-91
2021/03/19 05:07:01;;;;;;;6.40;2.53;;;6.70;99.90;;;;;;4941431;29;20016;-92
2021/03/19 05:09:32;;;;;;;5.65;2.75;;;6.70;99.90;;;;;;4925073;29;20028;-89
2021/03/19 05:12:04;;;;;;;6.65;2.63;;;6.60;99.90;;;;;;4941564;29;20036;-91
2021/03/19 05:14:33;;;;;;;4.78;2.70;;;6.60;99.90;;;;;;4940894;29;20020;-90
2021/03/19 05:17:20;;;;;;;4.03;2.67;;;6.70;99.90;;;;;;4938328;29;20047;-91
2021/03/19 05:19:46;;;;;;;3.28;2.30;;;6.70;99.90;;;;;;4940785;29;20020;-91
2021/03/19 05:22:12;;;;;;;3.97;2.58;;;6.70;99.90;;;;;;4941364;29;20016;-90
2021/03/19 05:24:37;;;;;;;3.15;2.10;;;6.60;99.90;;;;;;4925138;29;20185;-91
2021/03/19 05:27:04;;;;;;;5.50;2.53;;;6.60;99.90;;;;;;4941534;29;20020;-90
2021/03/19 05:29:30;;;;;;;3.88;2.03;;;6.60;99.90;;;;;;4940840;29;20031;-91
2021/03/19 05:31:55;;;;;;;3.65;2.38;;;6.60;99.90;;;;;;4925389;29;20016;-90
2021/03/19 05:34:21;;;;;;;5.43;2.58;;;6.60;99.90;;;;;;4925284;29;20023;-89
2021/03/19 05:36:47;;;;;;;3.22;2.00;;;6.60;99.90;;;;;;4925053;29;20036;-90
2021/03/19 05:39:13;;;;;;;3.88;2.58;;;6.60;99.90;;;;;;4924952;29;20016;-88
2021/03/19 05:41:40;;;;;;;2.70;1.90;;;6.60;99.90;;;;;;4924756;29;20047;-89
2021/03/19 05:44:16;;;;;;;3.33;2.30;;;6.50;99.90;;;;;;4939915;29;20092;-88
2021/03/19 05:46:46;;;;;;;4.18;2.15;;;6.60;99.90;;;;;;4940390;29;20036;-90
2021/03/19 05:49:27;;;;;;;5.63;2.80;;;6.60;99.90;;;;;;4924038;29;20023;-90
2021/03/19 05:52:23;;;;;;;3.40;2.08;;;6.60;99.90;;;;;;4940572;29;20020;-90
2021/03/19 05:54:52;;;;;;;2.85;2.13;;;6.60;99.90;;;;;;4939323;29;20029;-90
2021/03/19 05:57:31;;;;;;;4.18;2.40;;;6.60;99.90;;;;;;4940176;29;20036;-92
2021/03/19 06:00:00;;;;;;;3.88;2.30;;;6.60;99.90;;;;;;4940448;29;20280;-88
2021/03/19 06:02:34;;;;;;;3.90;2.20;;;6.60;99.90;;;;;;4943900;29;20017;-90
2021/03/19 06:05:13;;;;;;;1.90;1.35;;;6.60;99.90;;;;;;4927883;29;20048;-89
2021/03/19 06:07:40;;;;;;;2.30;1.52;;;6.60;99.90;;;;;;4943766;29;20020;-89
2021/03/19 06:10:25;;;;;;;3.88;1.70;;;6.50;99.90;;;;;;4943898;29;20020;-90
2021/03/19 06:12:56;;;;;;;4.45;1.52;;;6.50;99.90;;;;;;4943572;29;20016;-88
2021/03/19 06:15:25;;;;;;;2.95;1.98;;;6.50;99.90;;;;;;4943256;29;20036;-89
2021/03/19 06:17:51;;;;;;;4.38;1.83;;;6.50;99.90;;;;;;4943979;29;20019;-89
2021/03/19 06:20:19;;;;;;;3.25;1.92;;;6.50;99.90;;;;;;4927772;29;20028;-89
2021/03/19 06:22:54;;;;;;;2.95;1.75;;;6.50;99.90;;;;;;4944056;29;20012;-89
2021/03/19 06:25:26;;;;;;;2.33;1.55;;;6.50;99.90;;;;;;4944039;29;20028;-89
2021/03/19 06:27:58;;;;;;;2.90;1.42;;;6.50;99.90;;;;;;4943681;29;20043;-89
2021/03/19 06:30:36;;;;;;;2.53;1.60;;;6.50;99.90;;;;;;4944365;29;20012;-90
2021/03/19 06:33:23;;;;;;;2.17;1.52;;;6.50;99.90;;;;;;4944092;29;20027;-89
2021/03/19 06:36:14;;;;;;;1.90;1.42;;;6.50;99.90;;;;;;4944762;29;20040;-88
2021/03/19 06:38:46;;;;;;;2.10;1.52;;;6.50;99.90;;;;;;4931123;29;20049;-88
2021/03/19 06:41:21;;;;;;;3.63;2.22;;;6.50;99.90;;;;;;4944179;29;20031;-89
2021/03/19 06:43:49;;;;;;;2.42;1.42;;;6.50;99.90;;;;;;4944092;29;20016;-89
2021/03/19 06:46:35;;;;;;;3.97;1.90;;;6.60;99.90;;;;;;4943541;29;20047;-89
2021/03/19 06:49:08;;;;;;;2.55;1.52;;;6.60;99.90;;;;;;4944270;29;20028;-87
2021/03/19 06:51:51;;;;;;;3.10;1.80;;;6.60;99.90;;;;;;4944279;29;20044;-89
2021/03/19 06:54:47;;;;;;;2.13;1.60;;;6.60;99.90;;;;;;4941558;29;20027;-88
2021/03/19 06:57:21;;;;;;;3.08;1.70;;;6.60;99.90;;;;;;4944074;29;20048;-89
2021/03/19 06:59:54;;;;;;;;;;;6.50;99.90;;;;;;4943708;29;20355;-88
2021/03/19 07:02:20;;;;;;;2.00;1.58;;;6.60;99.90;;;;;;4944120;29;19942;-89
2021/03/19 07:05:11;;;;;;;2.35;1.60;;;6.60;99.90;;;;;;4944045;29;20020;-91
2021/03/19 07:07:52;;;;;;;3.35;1.60;;;6.60;99.90;;;;;;4943490;29;20020;-88
2021/03/19 07:10:52;;;;;;;2.17;1.50;;;6.60;99.90;;;;;;4943700;29;20028;-88
2021/03/19 07:13:47;;;;;;;2.25;1.42;;;6.60;99.90;;;;;;4942793;29;20036;-89
2021/03/19 07:16:54;;;;;;;3.38;1.50;;;6.70;99.90;;;;;;4927682;29;20034;-91
2021/03/19 07:19:26;;;;;;;1.90;1.50;;;6.80;99.90;;;;;;4918754;29;20053;-89
2021/03/19 07:21:56;;;;;;;2.17;1.20;;;6.90;99.90;;;;;;4936983;29;20016;-89
2021/03/19 07:24:57;;;;;;;1.10;0.95;;;7.00;99.90;;;;;;4943350;29;20107;-91
2021/03/19 07:27:50;;;;;;;1.10;1.00;;;7.10;99.90;;;;;;4906118;29;20070;-90
2021/03/19 07:30:49;;;;;;;1.35;0.98;;;7.20;99.90;;;;;;4927483;29;20097;-89
2021/03/19 07:33:39;;;;;;;1.42;1.00;;;7.30;99.90;;;;;;4928974;29;20040;-89
2021/03/19 07:36:36;;;;;;;1.10;1.00;;;7.40;99.90;;;;;;4913539;29;20020;-89
2021/03/19 07:39:40;;;;;;;3.67;1.02;;;7.50;99.90;;;;;;4939764;29;20000;-89
2021/03/19 07:42:34;;;;;;;0.93;0.75;;;7.60;99.90;;;;;;4936820;29;20045;-89
2021/03/19 07:45:01;;;;;;;0.60;0.60;;;7.70;99.90;;;;;;4942413;29;20027;-91
2021/03/19 07:47:30;;;;;;;0.70;0.70;;;7.70;99.90;;;;;;4925223;29;20016;-90
2021/03/19 07:50:17;;;;;;;0.52;0.52;;;7.70;99.90;;;;;;4942257;29;20024;-90
2021/03/19 07:52:46;;;;;;;0.70;0.70;;;7.80;99.90;;;;;;4942235;29;20066;-89
2021/03/19 07:55:21;;;;;;;0.95;0.73;;;7.90;99.90;;;;;;4939553;29;20041;-89
2021/03/19 07:58:04;;;;;;;0.63;0.63;;;7.90;99.90;;;;;;4937890;29;20041;-89
2021/03/19 08:00:34;;;;;;;0.77;0.77;;;8.00;99.90;;;;;;4919307;29;20040;-92
2021/03/19 08:03:11;;;;;;;0.88;0.73;;;8.10;99.90;;;;;;4933959;29;20013;-89
2021/03/19 08:05:54;;;;;;;0.63;0.63;;;8.10;99.90;;;;;;4935755;29;20017;-92
2021/03/19 08:08:34;;;;;;;0.85;0.73;;;8.20;99.90;;;;;;4921425;29;20013;-90
2021/03/19 08:11:37;;;;;;;1.10;0.80;;;8.20;99.90;;;;;;4923604;29;20032;-89
2021/03/19 08:14:37;;;;;;;1.15;0.93;;;8.30;99.90;;;;;;4966523;23;20034;-91
2021/03/19 08:17:24;;;;;;;1.45;0.70;;;8.20;99.90;;;;;;5010655;28;20053;-90
2021/03/19 08:20:22;;;;;;;0.90;0.75;;;8.20;99.90;;;;;;5013671;28;20010;-91
2021/03/19 08:23:16;;;;;;;1.90;1.00;;;8.20;99.90;;;;;;5016833;28;20018;-91
2021/03/19 08:25:48;;;;;;;0.73;0.73;;;8.10;99.90;;;;;;5021806;28;20034;-93
2021/03/19 08:28:42;;;;;;;0.88;0.80;;;8.10;99.90;;;;;;5006537;28;20030;-91
2021/03/19 08:31:10;;;;;;;1.25;1.00;;;8.10;99.90;;;;;;5016575;28;20025;-91
2021/03/19 08:33:59;;;;;;;1.25;0.93;;;8.00;99.90;;;;;;5021421;28;20033;-91
2021/03/19 08:36:47;;;;;;;1.10;1.00;;;8.00;99.90;;;;;;5020332;28;20042;-95
2021/03/19 08:39:35;;;;;;;1.20;1.00;;;8.00;99.90;;;;;;5032765;28;20006;-92
2021/03/19 08:42:05;;;;;;;2.10;0.82;;;8.00;99.90;;;;;;5016914;28;20257;-94
2021/03/19 08:44:41;;;;;;;0.60;0.60;;;8.00;99.90;;;;;;5017534;28;20016;-90
2021/03/19 08:47:36;;;;;;;4.72;0.90;;;8.00;99.90;;;;;;5018393;28;20275;-91
2021/03/19 08:50:33;;;;;;;1.05;0.80;;;7.90;99.90;;;;;;5013205;28;20086;-91
2021/03/19 08:53:13;;;;;;;1.38;1.08;;;7.80;99.90;;;;;;4998146;28;20030;-93
2021/03/19 08:55:41;;;;;;;1.05;0.77;;;7.90;99.90;;;;;;4996135;28;20010;-94
2021/03/19 08:58:29;;;;;;;1.33;0.90;;;7.90;99.90;;;;;;4999779;28;20050;-94
2021/03/19 09:00:58;;;;;;;0.68;0.68;;;7.90;99.90;;;;;;5000211;28;20049;-94
2021/03/19 09:03:43;;;;;;;0.57;0.57;;;7.90;99.90;;;;;;5000236;28;20220;-92
2021/03/19 09:06:15;;;;;;;0.65;0.65;;;8.00;99.90;;;;;;5002142;28;20061;-94
2021/03/19 09:09:05;;;;;;;0.43;0.43;;;8.00;99.90;;;;;;4997367;28;20026;-92
2021/03/19 09:11:38;;;;;;;0.80;0.77;;;8.00;99.90;;;;;;5002138;28;20026;-92
2021/03/19 09:14:04;;;;;;;1.60;0.65;;;8.00;99.90;;;;;;5001869;28;20026;-93
2021/03/19 09:16:52;;;;;;;1.70;1.00;;;8.00;99.90;;;;;;5001575;28;20094;-90
2021/03/19 09:19:44;;;;;;;0.82;0.75;;;8.00;99.90;;;;;;5002566;28;20041;-87
2021/03/19 09:22:38;;;;;;;0.52;0.50;;;8.10;99.90;;;;;;4994908;28;20090;-87
2021/03/19 09:25:15;;;;;;;0.57;0.55;;;8.20;99.90;;;;;;5018536;28;20009;-89
2021/03/19 09:28:31;;;;;;;0.70;0.70;;;8.30;99.90;;;;;;5001191;28;20073;-93
2021/03/19 09:31:22;;;;;;;1.27;0.60;;;8.30;99.90;;;;;;5001134;28;20056;-93
2021/03/19 09:33:49;;;;;;;0.77;0.50;;;8.30;99.90;;;;;;4980405;28;20042;-91
2021/03/19 09:36:53;;;;;;;0.50;0.50;;;8.30;99.90;;;;;;5015803;28;20056;-95
2021/03/19 09:39:55;;;;;;;0.65;0.57;;;8.40;99.90;;;;;;4998487;28;20030;-94
2021/03/19 09:42:20;;;;;;;4.55;0.65;;;8.40;99.90;;;;;;5014711;28;20090;-89
2021/03/19 09:44:58;;;;;;;1.48;0.60;;;8.50;99.90;;;;;;5016018;28;20014;-93
2021/03/19 09:47:29;;;;;;;3.97;0.70;;;8.40;99.90;;;;;;4995349;28;20022;-95
2021/03/19 09:50:13;;;;;;;2.05;0.60;;;8.50;99.90;;;;;;4998018;28;20094;-89
2021/03/19 09:52:53;;;;;;;0.70;0.60;;;8.60;99.90;;;;;;5001986;28;20035;-89
2021/03/19 09:55:26;;;;;;;0.80;0.80;;;8.60;99.90;;;;;;5018531;28;20018;-88
2021/03/19 09:57:53;;;;;;;0.88;0.63;;;8.60;99.90;;;;;;5002037;28;20015;-88
2021/03/19 10:00:22;;;;;;;0.63;0.52;;;8.60;99.90;;;;;;5001227;28;20006;-88
2021/03/19 10:02:48;;;;;;;1.08;0.80;;;8.60;99.90;;;;;;5001213;28;20089;-89
2021/03/19 10:05:19;;;;;;;2.35;0.65;;;8.60;99.90;;;;;;5018551;28;20011;-89
2021/03/19 10:07:47;;;;;;;1.00;0.80;;;8.60;99.90;;;;;;5001424;28;20037;-88
2021/03/19 10:10:42;;;;;;;0.70;0.65;;;8.60;99.90;;;;;;5001911;28;20038;-87
2021/03/19 10:13:25;;;;;;;0.70;0.70;;;8.60;99.90;;;;;;5001688;28;20017;-88
2021/03/19 10:15:54;;;;;;;3.15;1.20;;;8.60;99.90;;;;;;5001039;28;20046;-88
2021/03/19 10:18:32;;;;;;;1.73;1.45;;;8.60;99.90;;;;;;5018223;28;20031;-87
2021/03/19 10:21:06;;;;;;;0.95;0.90;;;8.60;99.90;;;;;;5017422;28;20034;-86
2021/03/19 10:23:42;;;;;;;1.30;1.00;;;8.60;99.90;;;;;;5001287;28;20034;-88
2021/03/19 10:26:26;;;;;;;1.40;1.08;;;8.60;99.90;;;;;;5018227;28;20030;-88
2021/03/19 10:29:10;;;;;;;1.10;0.93;;;8.60;99.90;;;;;;5018212;28;20010;-88
2021/03/19 10:31:50;;;;;;;1.10;1.00;;;8.70;99.90;;;;;;5010977;28;20030;-92
2021/03/19 10:34:46;;;;;;;1.17;1.02;;;8.70;99.90;;;;;;4998745;28;20039;-88
2021/03/19 10:37:24;;;;;;;1.83;1.27;;;8.70;99.90;;;;;;4979646;28;20039;-89
2021/03/19 10:40:12;;;;;;;3.45;1.20;;;8.70;99.90;;;;;;4981575;28;20015;-93
2021/03/19 10:43:12;;;;;;;1.50;1.40;;;8.70;99.90;;;;;;4996916;28;20087;-92
2021/03/19 10:45:59;;;;;;;2.78;2.13;;;8.70;99.90;;;;;;4972796;28;20050;-89
2021/03/19 10:48:47;;;;;;;3.83;2.50;;;8.70;99.90;;;;;;5000929;28;20027;-92
2021/03/19 10:51:45;;;;;;;3.88;2.80;;;8.70;99.90;;;;;;4977656;28;20046;-91
2021/03/19 10:54:16;;;;;;;5.60;3.58;;;8.60;99.90;;;;;;4970562;28;20039;-94
2021/03/19 10:56:58;;;;;;;5.50;1.52;;;8.70;99.90;;;;;;4977899;28;20034;-96
2021/03/19 10:59:32;;;;;;;3.97;1.85;;;8.60;99.90;;;;;;4997077;28;20031;-92
2021/03/19 11:02:14;;;;;;;2.92;1.45;;;8.70;99.90;;;;;;4999681;28;20075;-92
2021/03/19 11:04:41;;;;;;;2.42;1.80;;;8.70;99.90;;;;;;4997939;28;20034;-91
2021/03/19 11:07:25;;;;;;;1.40;1.30;;;8.80;99.90;;;;;;4998712;28;20034;-90
2021/03/19 11:10:09;;;;;;;1.90;1.40;;;8.90;99.90;;;;;;4996548;28;20012;-93
2021/03/19 11:12:51;;;;;;;1.67;1.30;;;8.90;99.90;;;;;;4978835;28;20035;-93
2021/03/19 11:15:38;;;;;;;1.40;1.30;;;8.90;99.90;;;;;;5012151;28;20043;-94
2021/03/19 11:18:27;;;;;;;2.50;1.30;;;9.00;99.90;;;;;;5016654;28;20038;-92
2021/03/19 11:20:59;;;;;;;0.95;0.90;;;9.10;99.90;;;;;;5002229;28;20084;-93
2021/03/19 11:23:36;;;;;;;1.15;0.98;;;9.20;99.90;;;;;;4999576;28;20026;-92
2021/03/19 11:26:17;;;;;;;2.00;1.08;;;9.20;99.90;;;;;;4999575;28;20010;-95
2021/03/19 11:28:44;;;;;;;1.00;1.00;;;9.30;99.90;;;;;;5014573;28;20018;-94
2021/03/19 11:31:14;;;;;;;3.70;1.00;;;9.30;99.90;;;;;;4981331;28;20054;-94
2021/03/19 11:34:03;;;;;;;2.30;1.25;;;9.30;99.90;;;;;;4994276;28;20034;-94
2021/03/19 11:36:58;;;;;;;1.08;0.90;;;9.20;99.90;;;;;;4980538;28;20074;-93
2021/03/19 11:39:57;;;;;;;1.17;0.88;;;9.20;99.90;;;;;;5003877;28;20138;-94
2021/03/19 11:42:29;;;;;;;1.73;1.15;;;9.10;99.90;;;;;;5006879;28;20026;-92
2021/03/19 11:45:18;;;;;;;2.47;1.40;;;9.10;99.90;;;;;;5004489;28;20030;-93
2021/03/19 11:48:06;;;;;;;1.20;1.10;;;9.10;99.90;;;;;;4984904;28;20041;-94
2021/03/19 11:50:41;;;;;;;1.75;0.90;;;9.10;99.90;;;;;;4939878;28;20038;-94
2021/03/19 11:53:15;;;;;;;1.48;1.38;;;9.10;99.90;;;;;;4984139;28;20054;-94
2021/03/19 11:55:44;;;;;;;1.48;1.10;;;9.00;99.90;;;;;;4985134;28;20026;-93
2021/03/19 11:58:13;;;;;;;2.40;0.85;;;9.00;99.90;;;;;;4983472;28;20030;-94
2021/03/19 12:00:40;;;;;;;2.88;0.90;;;9.10;99.90;;;;;;4983223;28;20015;-93
2021/03/19 12:03:12;;;;;;;1.75;1.10;;;9.10;99.90;;;;;;5004396;28;20038;-93
2021/03/19 12:05:38;;;;;;;2.05;1.50;;;9.10;99.90;;;;;;5004700;28;20062;-92
2021/03/19 12:08:04;;;;;;;2.35;1.30;;;9.00;99.90;;;;;;4991628;28;20019;-94
2021/03/19 12:10:30;;;;;;;1.77;1.50;;;9.00;99.90;;;;;;4994708;28;20031;-93
2021/03/19 12:13:02;;;;;;;2.47;1.20;;;9.00;99.90;;;;;;5011733;28;20023;-95
2021/03/19 12:15:30;;;;;;;1.30;1.20;;;9.10;99.90;;;;;;5015085;28;20042;-95
2021/03/19 12:17:56;;;;;;;1.55;1.30;;;9.10;99.90;;;;;;5019020;28;20083;-90
2021/03/19 12:20:22;;;;;;;1.98;1.30;;;9.10;99.90;;;;;;5003630;28;20037;-92
2021/03/19 12:22:49;;;;;;;2.00;1.40;;;9.10;99.90;;;;;;5003646;28;20029;-88
2021/03/19 12:25:36;;;;;;;2.08;1.30;;;9.10;99.90;;;;;;5003403;28;20050;-88
2021/03/19 12:28:02;;;;;;;2.03;1.23;;;9.20;99.90;;;;;;5015691;28;20033;-91
2021/03/19 12:30:28;;;;;;;2.58;1.15;;;9.20;99.90;;;;;;5017645;28;20010;-87
2021/03/19 12:32:54;;;;;;;2.30;1.30;;;9.30;99.90;;;;;;5002750;28;20011;-89
2021/03/19 12:35:24;;;;;;;2.53;1.20;;;9.30;99.90;;;;;;5002598;28;20034;-87
2021/03/19 12:37:53;;;;;;;3.10;0.90;;;9.40;99.90;;;;;;5019271;28;20026;-89
2021/03/19 12:40:24;;;;;;;2.00;1.30;;;9.40;99.90;;;;;;4997087;28;20037;-90
2021/03/19 12:42:50;;;;;;;;;;;9.40;99.90;;;;;;5000615;28;20007;-90
2021/03/19 12:45:18;;;;;;;2.40;1.10;;;9.40;99.90;;;;;;5018998;28;20022;-89
2021/03/19 12:47:44;;;;;;;0.95;0.93;;;9.40;99.90;;;;;;5016989;28;20019;-93
2021/03/19 12:50:10;;;;;;;1.60;1.20;;;9.40;99.90;;;;;;4989916;28;20035;-95
2021/03/19 12:52:36;;;;;;;1.45;1.20;;;9.40;99.90;;;;;;5001016;28;20026;-90
2021/03/19 12:55:02;;;;;;;1.58;1.23;;;9.40;99.90;;;;;;5017778;28;20034;-95
2021/03/19 12:57:28;;;;;;;1.77;1.30;;;9.40;99.90;;;;;;5016570;28;20093;-94
2021/03/19 12:59:53;;;;;;;1.35;1.20;;;9.30;99.90;;;;;;4998628;28;20071;-90
2021/03/19 13:02:19;;;;;;;1.30;1.20;;;9.30;99.90;;;;;;5017689;28;20069;-92
2021/03/19 13:04:45;;;;;;;1.75;1.20;;;9.30;99.90;;;;;;5000438;28;20018;-93
2021/03/19 13:07:10;;;;;;;1.92;1.42;;;9.30;99.90;;;;;;4999897;28;20045;-91
2021/03/19 13:09:37;;;;;;;2.85;1.90;;;9.30;99.90;;;;;;5000371;28;20010;-90
2021/03/19 13:12:05;;;;;;;3.63;1.80;;;9.30;99.90;;;;;;5000699;28;20014;-89
2021/03/19 13:14:31;;;;;;;2.50;1.73;;;9.30;99.90;;;;;;4997258;28;20039;-94
2021/03/19 13:17:09;;;;;;;1.65;1.40;;;9.30;99.90;;;;;;5013194;28;20030;-89
2021/03/19 13:19:35;;;;;;;1.42;1.33;;;9.30;99.90;;;;;;5017489;28;20034;-95
2021/03/19 13:22:04;;;;;;;4.95;1.60;;;9.30;99.90;;;;;;4999647;28;20018;-94
2021/03/19 13:24:35;;;;;;;2.35;1.55;;;9.30;99.90;;;;;;5016065;28;20050;-91
2021/03/19 13:27:04;;;;;;;2.70;1.30;;;9.30;99.90;;;;;;5000341;28;20030;-95
2021/03/19 13:29:29;;;;;;;1.83;1.15;;;9.30;99.90;;;;;;4998455;28;20020;-92
2021/03/19 13:31:55;;;;;;;2.45;1.65;;;9.30;99.90;;;;;;5002378;28;20046;-90
2021/03/19 13:34:21;;;;;;;1.95;1.00;;;9.20;99.90;;;;;;5018429;28;20050;-93
2021/03/19 13:36:47;;;;;;;2.55;1.27;;;9.20;99.90;;;;;;5000632;28;20027;-94
2021/03/19 13:39:12;;;;;;;3.63;1.50;;;9.10;99.90;;;;;;5000999;28;20026;-93
2021/03/19 13:41:40;;;;;;;5.68;1.80;;;9.10;99.90;;;;;;5017028;28;20034;-93